createdAt,value
2022-08-21T00:01:43.570Z,13.72
2022-08-21T00:04:13.631Z,13.70
2022-08-21T00:06:49.097Z,13.66
2022-08-21T00:09:16.709Z,13.63
2022-08-21T00:11:44.294Z,13.58
2022-08-21T00:14:13.190Z,13.55
2022-08-21T00:16:40.794Z,13.49
2022-08-21T00:19:09.314Z,13.42
2022-08-21T00:21:37.949Z,13.38
2022-08-21T00:24:07.747Z,13.38
2022-08-21T00:26:35.524Z,13.36
2022-08-21T00:29:05.753Z,13.34
2022-08-21T00:31:33.429Z,13.29
2022-08-21T00:34:02.025Z,13.25
2022-08-21T00:36:29.796Z,13.20
2022-08-21T00:38:57.406Z,13.17
2022-08-21T00:41:37.152Z,13.15
2022-08-21T00:44:06.009Z,13.14
2022-08-21T00:46:33.610Z,13.10
2022-08-21T00:49:01.200Z,13.06
2022-08-21T00:51:38.576Z,13.04
2022-08-21T00:54:09.933Z,13.05
2022-08-21T00:56:49.856Z,13.03
2022-08-21T00:59:19.672Z,13.00
2022-08-21T01:01:47.869Z,12.99
2022-08-21T01:04:17.221Z,12.96
2022-08-21T01:06:45.184Z,12.96
2022-08-21T01:09:13.024Z,12.96
2022-08-21T01:11:42.834Z,12.99
2022-08-21T01:14:13.097Z,12.97
2022-08-21T01:16:42.486Z,12.99
2022-08-21T01:19:10.731Z,12.99
2022-08-21T01:21:41.093Z,12.99
2022-08-21T01:24:08.793Z,13.01
2022-08-21T01:26:38.100Z,13.02
2022-08-21T01:29:11.363Z,13.03
2022-08-21T01:31:39.757Z,13.04
2022-08-21T01:34:08.324Z,13.06
2022-08-21T01:36:36.537Z,13.05
2022-08-21T01:39:06.992Z,13.04
2022-08-21T01:41:34.613Z,13.05
2022-08-21T01:44:02.506Z,13.07
2022-08-21T01:46:31.354Z,13.08
2022-08-21T01:48:58.988Z,13.09
2022-08-21T01:51:26.826Z,13.10
2022-08-21T01:53:54.405Z,13.07
2022-08-21T01:56:24.031Z,13.06
2022-08-21T01:58:51.605Z,13.06
2022-08-21T02:01:19.250Z,13.07
2022-08-21T02:03:46.906Z,13.06
2022-08-21T02:06:18.620Z,13.06
2022-08-21T02:08:46.757Z,13.08
2022-08-21T02:11:14.445Z,13.06
2022-08-21T02:13:43.389Z,13.07
2022-08-21T02:16:11.092Z,13.09
2022-08-21T02:18:38.773Z,13.12
2022-08-21T02:21:07.018Z,13.11
2022-08-21T02:23:35.009Z,13.13
2022-08-21T02:26:04.850Z,13.14
2022-08-21T02:28:33.285Z,13.14
2022-08-21T02:31:02.458Z,13.17
2022-08-21T02:33:30.603Z,13.18
2022-08-21T02:35:59.647Z,13.18
2022-08-21T02:38:30.158Z,13.18
2022-08-21T02:40:59.145Z,13.18
2022-08-21T02:43:29.119Z,13.20
2022-08-21T02:45:57.614Z,13.17
2022-08-21T02:48:29.053Z,13.18
2022-08-21T02:50:59.118Z,13.19
2022-08-21T02:53:27.326Z,13.19
2022-08-21T02:55:55.962Z,13.18
2022-08-21T02:58:27.064Z,13.18
2022-08-21T03:00:55.683Z,13.19
2022-08-21T03:03:24.082Z,13.18
2022-08-21T03:05:53.517Z,13.18
2022-08-21T03:08:21.725Z,13.21
2022-08-21T03:10:53.804Z,13.21
2022-08-21T03:13:22.457Z,13.23
2022-08-21T03:15:51.388Z,13.23
2022-08-21T03:18:19.297Z,13.23
2022-08-21T03:20:47.604Z,13.22
2022-08-21T03:23:19.045Z,13.20
2022-08-21T03:25:48.368Z,13.18
2022-08-21T03:28:18.896Z,13.15
2022-08-21T03:30:48.184Z,13.12
2022-08-21T03:33:16.110Z,13.10
2022-08-21T03:35:44.953Z,13.07
2022-08-21T03:38:14.589Z,13.06
2022-08-21T03:40:44.264Z,13.07
2022-08-21T03:43:12.601Z,13.06
2022-08-21T03:45:40.968Z,13.06
2022-08-21T03:48:10.056Z,13.05
2022-08-21T03:50:41.701Z,13.03
2022-08-21T03:53:17.405Z,13.05
2022-08-21T03:55:48.641Z,13.06
2022-08-21T03:58:17.656Z,13.05
2022-08-21T04:00:46.369Z,13.03
2022-08-21T04:03:14.207Z,13.04
2022-08-21T04:05:41.940Z,13.04
2022-08-21T04:08:10.112Z,13.05
2022-08-21T04:10:39.873Z,13.04
2022-08-21T04:13:10.201Z,13.08
2022-08-21T04:15:38.222Z,13.08
2022-08-21T04:18:06.825Z,13.09
2022-08-21T04:20:35.160Z,13.11
2022-08-21T04:23:02.819Z,13.15
2022-08-21T04:25:30.504Z,13.21
2022-08-21T04:27:58.129Z,13.22
2022-08-21T04:30:28.203Z,13.26
2022-08-21T04:32:58.175Z,13.31
2022-08-21T04:35:27.979Z,13.36
2022-08-21T04:37:55.624Z,13.44
2022-08-21T04:40:25.051Z,13.52
2022-08-21T04:42:56.447Z,13.63
2022-08-21T04:45:28.152Z,13.70
2022-08-21T04:47:57.782Z,13.78
2022-08-21T04:50:31.120Z,13.86
2022-08-21T04:52:59.905Z,13.95
2022-08-21T04:55:28.817Z,14.05
2022-08-21T04:57:57.364Z,14.16
2022-08-21T05:00:27.745Z,14.37
2022-08-21T05:03:00.142Z,14.99
2022-08-21T05:05:29.890Z,16.01
2022-08-21T05:07:59.513Z,16.90
2022-08-21T05:10:27.556Z,17.67
2022-08-21T05:12:55.335Z,18.39
2022-08-21T05:15:23.069Z,19.10
2022-08-21T05:17:53.755Z,19.84
2022-08-21T05:20:28.540Z,20.63
2022-08-21T05:22:56.177Z,21.25
2022-08-21T05:25:24.158Z,21.90
2022-08-21T05:27:52.349Z,22.41
2022-08-21T05:30:21.098Z,23.13
2022-08-21T05:32:49.284Z,23.76
2022-08-21T05:35:18.213Z,24.29
2022-08-21T05:37:45.770Z,24.89
2022-08-21T05:40:22.219Z,25.50
2022-08-21T05:42:54.286Z,25.77
2022-08-21T05:45:42.320Z,26.05
2022-08-21T05:48:12.205Z,26.63
2022-08-21T05:50:41.667Z,27.03
2022-08-21T05:53:10.326Z,27.17
2022-08-21T05:55:44.235Z,27.46
2022-08-21T05:58:13.198Z,27.44
2022-08-21T06:00:41.085Z,27.77
2022-08-21T06:03:13.173Z,28.27
2022-08-21T06:05:42.151Z,28.70
2022-08-21T06:08:09.741Z,28.99
2022-08-21T06:10:37.329Z,29.15
2022-08-21T06:13:05.555Z,29.26
2022-08-21T06:15:33.274Z,29.31
2022-08-21T06:18:00.857Z,29.68
2022-08-21T06:20:29.166Z,29.77
2022-08-21T06:22:58.276Z,30.01
2022-08-21T06:25:26.884Z,30.03
2022-08-21T06:27:54.729Z,30.04
2022-08-21T06:30:22.524Z,30.28
2022-08-21T06:32:50.076Z,30.40
2022-08-21T06:35:17.676Z,30.29
2022-08-21T06:37:45.247Z,30.50
2022-08-21T06:40:14.651Z,30.69
2022-08-21T06:42:42.818Z,30.72
2022-08-21T06:45:11.421Z,30.84
2022-08-21T06:47:39.166Z,30.79
2022-08-21T06:50:09.193Z,31.02
2022-08-21T06:52:37.012Z,31.16
2022-08-21T06:55:06.872Z,31.00
2022-08-21T06:57:36.333Z,30.75
2022-08-21T07:00:06.190Z,31.01
2022-08-21T07:02:34.980Z,30.98
2022-08-21T07:05:11.793Z,30.93
2022-08-21T07:07:45.928Z,31.02
2022-08-21T07:10:22.000Z,31.13
2022-08-21T07:13:01.236Z,30.73
2022-08-21T07:15:30.875Z,30.50
2022-08-21T07:17:59.266Z,30.46
2022-08-21T07:20:27.901Z,30.52
2022-08-21T07:22:55.969Z,30.28
2022-08-21T07:25:24.036Z,29.95
2022-08-21T07:27:53.209Z,29.83
2022-08-21T07:30:20.848Z,29.85
2022-08-21T07:32:50.114Z,29.61
2022-08-21T07:35:18.450Z,29.44
2022-08-21T07:37:46.093Z,29.25
2022-08-21T07:40:14.143Z,28.75
2022-08-21T07:42:43.234Z,28.25
2022-08-21T07:45:13.676Z,27.58
2022-08-21T07:47:42.935Z,27.26
2022-08-21T07:50:12.007Z,26.91
2022-08-21T07:52:40.125Z,26.51
2022-08-21T07:55:08.777Z,26.21
2022-08-21T07:57:36.398Z,25.92
2022-08-21T08:00:05.637Z,25.83
2022-08-21T08:02:34.596Z,25.69
2022-08-21T08:05:03.232Z,25.65
2022-08-21T08:07:31.179Z,25.59
2022-08-21T08:09:59.559Z,25.75
2022-08-21T08:12:30.302Z,25.75
2022-08-21T08:14:58.303Z,25.82
2022-08-21T08:17:26.769Z,25.99
2022-08-21T08:19:56.351Z,26.22
2022-08-21T08:22:25.407Z,26.21
2022-08-21T08:24:54.584Z,26.29
2022-08-21T08:27:23.774Z,26.23
2022-08-21T08:29:52.378Z,26.05
2022-08-21T08:32:20.401Z,25.86
2022-08-21T08:34:49.666Z,25.77
2022-08-21T08:37:18.996Z,25.41
2022-08-21T08:39:50.810Z,25.38
2022-08-21T08:42:33.140Z,25.51
2022-08-21T08:45:06.197Z,25.40
2022-08-21T08:47:39.907Z,25.36
2022-08-21T08:50:12.758Z,25.40
2022-08-21T08:52:49.213Z,25.46
2022-08-21T08:55:24.204Z,25.30
2022-08-21T08:57:57.094Z,25.27
2022-08-21T09:00:26.072Z,25.44
2022-08-21T09:02:56.424Z,25.37
2022-08-21T09:05:27.830Z,25.44
2022-08-21T09:08:22.078Z,25.51
2022-08-21T09:10:58.086Z,25.47
2022-08-21T09:13:38.340Z,25.20
2022-08-21T09:16:13.220Z,25.22
2022-08-21T09:18:55.452Z,25.29
2022-08-21T09:21:30.051Z,25.56
2022-08-21T09:24:03.828Z,25.66
2022-08-21T09:26:39.927Z,25.64
2022-08-21T09:29:12.850Z,25.82
2022-08-21T09:31:40.410Z,25.76
2022-08-21T09:34:10.934Z,25.74
2022-08-21T09:36:42.525Z,25.82
2022-08-21T09:39:14.173Z,25.93
2022-08-21T09:41:41.873Z,25.88
2022-08-21T09:44:10.400Z,26.04
2022-08-21T09:46:38.264Z,26.09
2022-08-21T09:49:10.373Z,26.24
2022-08-21T09:51:53.401Z,26.21
2022-08-21T09:54:28.393Z,26.21
2022-08-21T09:57:16.436Z,26.34
2022-08-21T09:59:46.201Z,26.52
2022-08-21T10:02:26.182Z,26.28
2022-08-21T10:04:55.740Z,26.24
2022-08-21T10:07:25.242Z,26.32
2022-08-21T10:10:06.704Z,26.41
2022-08-21T10:12:45.760Z,26.61
2022-08-21T10:15:22.032Z,26.77
2022-08-21T10:18:00.760Z,26.45
2022-08-21T10:20:34.592Z,26.66
2022-08-21T10:23:28.352Z,26.72
2022-08-21T10:26:14.312Z,26.73
2022-08-21T10:28:51.252Z,26.66
2022-08-21T10:31:28.584Z,26.53
2022-08-21T10:34:13.100Z,26.65
2022-08-21T10:36:48.141Z,26.70
2022-08-21T10:39:35.467Z,26.69
2022-08-21T10:42:28.062Z,26.81
2022-08-21T10:45:12.392Z,27.03
2022-08-21T10:47:47.149Z,27.07
2022-08-21T10:50:23.929Z,27.17
2022-08-21T10:53:03.966Z,26.99
2022-08-21T10:55:36.205Z,26.90
2022-08-21T10:58:10.677Z,27.00
2022-08-21T11:00:47.083Z,27.13
2022-08-21T11:03:19.702Z,27.19
2022-08-21T11:05:52.232Z,27.32
2022-08-21T11:08:24.841Z,27.31
2022-08-21T11:11:00.030Z,27.34
2022-08-21T11:13:39.417Z,26.87
2022-08-21T11:16:16.589Z,26.93
2022-08-21T11:18:49.253Z,26.94
2022-08-21T11:21:31.393Z,27.18
2022-08-21T11:24:05.630Z,27.23
2022-08-21T11:26:40.954Z,27.53
2022-08-21T11:29:15.228Z,27.59
2022-08-21T11:31:54.704Z,27.66
2022-08-21T11:34:41.161Z,27.80
2022-08-21T11:37:19.532Z,27.74
2022-08-21T11:39:59.170Z,27.89
2022-08-21T11:42:37.228Z,28.01
2022-08-21T11:45:19.854Z,28.18
2022-08-21T11:47:57.981Z,28.41
2022-08-21T11:50:34.509Z,28.32
2022-08-21T11:53:10.826Z,28.40
2022-08-21T11:55:43.372Z,28.51
2022-08-21T11:58:16.417Z,28.45
2022-08-21T12:00:50.949Z,28.73
2022-08-21T12:03:27.328Z,28.89
2022-08-21T12:05:56.619Z,28.54
2022-08-21T12:08:35.854Z,28.58
2022-08-21T12:11:08.313Z,28.91
2022-08-21T12:13:42.390Z,28.85
2022-08-21T12:16:29.900Z,29.20
2022-08-21T12:19:06.478Z,29.42
2022-08-21T12:21:34.741Z,29.49
2022-08-21T12:24:06.361Z,29.52
2022-08-21T12:26:36.701Z,29.62
2022-08-21T12:29:17.564Z,29.67
2022-08-21T12:31:59.225Z,29.21
2022-08-21T12:34:39.048Z,28.97
2022-08-21T12:37:13.433Z,28.52
2022-08-21T12:39:46.605Z,28.59
2022-08-21T12:42:19.078Z,28.65
2022-08-21T12:44:52.313Z,28.47
2022-08-21T12:47:29.524Z,28.95
2022-08-21T12:50:04.218Z,28.62
2022-08-21T12:52:39.370Z,28.35
2022-08-21T12:55:08.697Z,28.15
2022-08-21T12:57:38.990Z,27.94
2022-08-21T13:00:12.561Z,27.84
2022-08-21T13:02:49.165Z,27.72
2022-08-21T13:05:22.280Z,27.18
2022-08-21T13:07:50.329Z,27.11
2022-08-21T13:10:22.677Z,26.73
2022-08-21T13:12:51.048Z,26.29
2022-08-21T13:15:33.027Z,25.94
2022-08-21T13:18:05.253Z,25.58
2022-08-21T13:20:38.885Z,25.49
2022-08-21T13:23:24.860Z,25.36
2022-08-21T13:25:52.589Z,25.33
2022-08-21T13:28:20.488Z,25.27
2022-08-21T13:30:50.668Z,25.15
2022-08-21T13:33:22.337Z,25.19
2022-08-21T13:35:52.386Z,25.31
2022-08-21T13:38:26.639Z,25.48
2022-08-21T13:40:58.678Z,26.10
2022-08-21T13:43:29.521Z,26.57
2022-08-21T13:45:58.645Z,26.72
2022-08-21T13:48:31.900Z,26.66
2022-08-21T13:51:00.804Z,26.64
2022-08-21T13:53:32.562Z,26.32
2022-08-21T13:56:02.192Z,25.83
2022-08-21T13:58:31.693Z,25.66
2022-08-21T14:01:01.959Z,25.72
2022-08-21T14:03:40.273Z,25.64
2022-08-21T14:06:14.933Z,25.65
2022-08-21T14:08:43.938Z,25.75
2022-08-21T14:11:14.429Z,25.64
2022-08-21T14:13:45.022Z,25.54
2022-08-21T14:16:17.187Z,25.46
2022-08-21T14:18:52.616Z,25.63
2022-08-21T14:21:44.538Z,26.15
2022-08-21T14:24:14.351Z,25.82
2022-08-21T14:26:50.612Z,25.77
2022-08-21T14:29:20.462Z,25.07
2022-08-21T14:31:54.766Z,24.76
2022-08-21T14:34:24.462Z,24.88
2022-08-21T14:36:52.904Z,25.44
2022-08-21T14:39:21.186Z,25.63
2022-08-21T14:41:49.749Z,25.52
2022-08-21T14:44:20.061Z,25.83
2022-08-21T14:46:55.424Z,25.90
2022-08-21T14:49:27.145Z,25.76
2022-08-21T14:51:58.040Z,26.06
2022-08-21T14:54:28.112Z,26.10
2022-08-21T14:57:00.872Z,26.34
2022-08-21T14:59:28.545Z,26.11
2022-08-21T15:01:57.125Z,26.22
2022-08-21T15:04:26.413Z,26.30
2022-08-21T15:06:53.973Z,26.43
2022-08-21T15:09:21.933Z,26.43
2022-08-21T15:11:49.933Z,26.49
2022-08-21T15:14:26.556Z,26.37
2022-08-21T15:16:54.342Z,26.30
2022-08-21T15:19:21.973Z,26.31
2022-08-21T15:21:50.953Z,26.36
2022-08-21T15:24:18.568Z,26.35
2022-08-21T15:26:46.953Z,26.33
2022-08-21T15:29:15.001Z,26.34
2022-08-21T15:31:57.462Z,26.03
2022-08-21T15:34:27.285Z,26.05
2022-08-21T15:36:58.189Z,25.91
2022-08-21T15:39:30.120Z,25.90
2022-08-21T15:41:59.065Z,26.06
2022-08-21T15:44:27.841Z,26.12
2022-08-21T15:46:55.469Z,26.11
2022-08-21T15:49:23.041Z,26.05
2022-08-21T15:51:50.721Z,25.48
2022-08-21T15:54:19.643Z,25.37
2022-08-21T15:56:50.932Z,24.72
2022-08-21T15:59:22.685Z,24.30
2022-08-21T16:01:51.867Z,24.21
2022-08-21T16:04:24.213Z,23.96
2022-08-21T16:06:55.614Z,23.84
2022-08-21T16:09:27.085Z,23.68
2022-08-21T16:11:55.072Z,23.94
2022-08-21T16:14:22.682Z,24.16
2022-08-21T16:16:50.344Z,24.15
2022-08-21T16:19:18.120Z,24.26
2022-08-21T16:21:46.086Z,24.29
2022-08-21T16:24:13.695Z,24.22
2022-08-21T16:26:42.664Z,24.08
2022-08-21T16:29:11.268Z,24.02
2022-08-21T16:31:39.901Z,23.97
2022-08-21T16:34:07.517Z,23.75
2022-08-21T16:36:35.128Z,23.55
2022-08-21T16:39:02.989Z,23.16
2022-08-21T16:41:36.302Z,23.04
2022-08-21T16:44:07.088Z,23.14
2022-08-21T16:46:40.649Z,22.92
2022-08-21T16:49:09.973Z,22.61
2022-08-21T16:51:38.028Z,22.66
2022-08-21T16:54:06.016Z,22.75
2022-08-21T16:56:33.854Z,22.81
2022-08-21T16:59:01.562Z,22.85
2022-08-21T17:01:34.114Z,22.74
2022-08-21T17:04:02.313Z,22.69
2022-08-21T17:06:31.154Z,22.55
2022-08-21T17:08:59.465Z,22.51
2022-08-21T17:11:37.323Z,22.44
2022-08-21T17:14:09.413Z,22.20
2022-08-21T17:16:39.894Z,22.13
2022-08-21T17:19:08.266Z,21.99
2022-08-21T17:21:36.426Z,21.99
2022-08-21T17:24:04.522Z,22.04
2022-08-21T17:26:32.610Z,22.06
2022-08-21T17:29:00.626Z,21.92
2022-08-21T17:31:28.921Z,21.94
2022-08-21T17:33:58.008Z,21.94
2022-08-21T17:36:27.648Z,21.79
2022-08-21T17:38:56.250Z,21.88
2022-08-21T17:41:24.552Z,21.82
2022-08-21T17:43:52.826Z,21.72
2022-08-21T17:46:28.036Z,21.68
2022-08-21T17:48:58.488Z,21.47
2022-08-21T17:51:29.185Z,21.31
2022-08-21T17:53:57.117Z,21.24
2022-08-21T17:56:27.301Z,21.18
2022-08-21T17:58:55.148Z,21.13
2022-08-21T18:01:22.750Z,21.04
2022-08-21T18:03:50.308Z,21.15
2022-08-21T18:06:19.568Z,21.11
2022-08-21T18:08:47.891Z,21.12
2022-08-21T18:11:23.201Z,21.15
2022-08-21T18:13:52.875Z,21.17
2022-08-21T18:16:20.980Z,21.16
2022-08-21T18:18:51.402Z,21.14
2022-08-21T18:21:20.825Z,21.12
2022-08-21T18:23:48.466Z,21.05
2022-08-21T18:26:26.124Z,21.01
2022-08-21T18:28:53.957Z,20.97
2022-08-21T18:31:22.098Z,20.93
2022-08-21T18:33:58.625Z,20.83
2022-08-21T18:36:29.325Z,20.74
2022-08-21T18:39:13.379Z,20.62
2022-08-21T18:41:47.204Z,20.58
2022-08-21T18:44:16.619Z,20.53
2022-08-21T18:46:46.713Z,20.45
2022-08-21T18:49:14.296Z,20.38
2022-08-21T18:51:45.400Z,20.35
2022-08-21T18:54:13.286Z,20.27
2022-08-21T18:56:41.201Z,20.21
2022-08-21T18:59:10.122Z,20.17
2022-08-21T19:01:38.496Z,20.08
2022-08-21T19:04:08.937Z,20.04
2022-08-21T19:06:41.026Z,20.04
2022-08-21T19:09:17.030Z,20.02
2022-08-21T19:11:45.169Z,19.98
2022-08-21T19:14:17.025Z,19.93
2022-08-21T19:16:46.962Z,19.88
2022-08-21T19:19:17.631Z,19.82
2022-08-21T19:21:47.124Z,19.76
2022-08-21T19:24:23.226Z,19.70
2022-08-21T19:26:55.961Z,19.64
2022-08-21T19:29:34.968Z,19.59
2022-08-21T19:32:05.259Z,19.55
2022-08-21T19:34:34.788Z,19.48
2022-08-21T19:37:02.740Z,19.44
2022-08-21T19:39:34.799Z,19.43
2022-08-21T19:42:03.036Z,19.40
2022-08-21T19:44:31.633Z,19.39
2022-08-21T19:47:00.786Z,19.34
2022-08-21T19:49:35.383Z,19.31
2022-08-21T19:52:12.885Z,19.25
2022-08-21T19:54:42.470Z,19.20
2022-08-21T19:57:12.025Z,19.16
2022-08-21T19:59:40.894Z,19.12
2022-08-21T20:02:10.286Z,19.06
2022-08-21T20:04:38.310Z,19.04
2022-08-21T20:07:08.088Z,19.02
2022-08-21T20:09:37.233Z,18.93
2022-08-21T20:14:57.381Z,18.80
2022-08-21T20:17:25.246Z,18.73
2022-08-21T20:19:55.188Z,18.66
2022-08-21T20:22:24.064Z,18.61
2022-08-21T20:24:52.031Z,18.57
2022-08-21T20:27:25.893Z,18.52
2022-08-21T20:29:55.723Z,18.51
2022-08-21T20:32:23.595Z,18.53
2022-08-21T20:34:52.070Z,18.52
2022-08-21T20:37:35.631Z,18.50
2022-08-21T20:40:07.782Z,18.46
2022-08-21T20:42:36.960Z,18.41
2022-08-21T20:45:08.215Z,18.40
2022-08-21T20:47:37.660Z,18.38
2022-08-21T20:50:13.885Z,18.38
2022-08-21T20:52:42.966Z,18.40
2022-08-21T20:55:13.770Z,18.39
2022-08-21T20:57:51.170Z,18.37
2022-08-21T21:00:22.233Z,18.30
2022-08-21T21:02:54.645Z,18.26
2022-08-21T21:05:27.896Z,18.26
2022-08-21T21:08:01.473Z,18.21
2022-08-21T21:10:36.057Z,18.17
2022-08-21T21:13:11.443Z,18.13
2022-08-21T21:15:42.076Z,18.09
2022-08-21T21:18:14.239Z,18.06
2022-08-21T21:20:49.045Z,17.99
2022-08-21T21:23:26.123Z,17.93
2022-08-21T21:26:01.223Z,17.88
2022-08-21T21:28:41.677Z,17.82
2022-08-21T21:31:11.405Z,17.78
2022-08-21T21:33:40.717Z,17.78
2022-08-21T21:36:18.092Z,17.76
2022-08-21T21:38:53.549Z,17.73
2022-08-21T21:41:31.097Z,17.68
2022-08-21T21:44:34.887Z,17.66
2022-08-21T21:47:08.716Z,17.64
2022-08-21T21:49:56.245Z,17.61
2022-08-21T21:52:42.151Z,17.56
2022-08-21T21:55:28.556Z,17.45
2022-08-21T21:58:16.726Z,17.34
2022-08-21T22:00:53.455Z,17.20
2022-08-21T22:03:27.000Z,17.14
2022-08-21T22:05:57.969Z,17.03
2022-08-21T22:08:34.478Z,16.94
2022-08-21T22:14:09.797Z,16.72
2022-08-21T22:16:39.333Z,16.62
2022-08-21T22:19:15.484Z,16.50
2022-08-21T22:21:50.096Z,16.42
2022-08-21T22:24:22.393Z,16.31
2022-08-21T22:26:54.339Z,16.26
2022-08-21T22:29:24.162Z,16.21
2022-08-21T22:32:05.888Z,16.17
2022-08-21T22:34:34.637Z,16.11
2022-08-21T22:37:05.784Z,16.06
2022-08-21T22:42:27.358Z,15.87
2022-08-21T22:44:58.664Z,15.80
2022-08-21T22:47:34.506Z,15.75
2022-08-21T22:50:05.778Z,15.72
2022-08-21T22:52:36.779Z,15.66
2022-08-21T22:55:19.417Z,15.61
2022-08-21T22:58:04.864Z,15.55
2022-08-21T23:00:42.522Z,15.50
2022-08-21T23:03:21.750Z,15.46
2022-08-21T23:05:50.806Z,15.44
2022-08-21T23:08:24.966Z,15.39
2022-08-21T23:10:58.425Z,15.37
2022-08-21T23:13:26.120Z,15.35
2022-08-21T23:16:06.416Z,15.31
2022-08-21T23:18:48.289Z,15.27
2022-08-21T23:21:23.968Z,15.25
2022-08-21T23:24:03.797Z,15.24
2022-08-21T23:26:40.410Z,15.19
2022-08-21T23:29:25.148Z,15.14
2022-08-21T23:32:03.659Z,15.10
2022-08-21T23:34:41.017Z,15.05
2022-08-21T23:37:48.966Z,15.00
2022-08-21T23:40:47.034Z,14.95
2022-08-21T23:43:33.097Z,14.90
2022-08-21T23:46:18.566Z,14.87
2022-08-21T23:48:52.737Z,14.84
2022-08-21T23:51:28.678Z,14.80
2022-08-21T23:54:07.733Z,14.71
2022-08-21T23:56:48.854Z,14.68
2022-08-21T23:59:28.339Z,14.66
